sensor_id;sensor_type;location;lat;lon;timestamp;P1;P2;P0
47079;PMS5003;33067;49.296;14.470;2023-02-08T00:00:07;174;149;
47079;PMS5003;33067;49.296;14.470;2023-02-08T00:02:31;200;167;
47079;PMS5003;33067;49.296;14.470;2023-02-08T00:04:57;187;153;
47079;PMS5003;33067;49.296;14.470;2023-02-08T00:07:22;189;166;
47079;PMS5003;33067;49.296;14.470;2023-02-08T00:09:48;153;136;
47079;PMS5003;33067;49.296;14.470;2023-02-08T00:12:14;172;147;
47079;PMS5003;33067;49.296;14.470;2023-02-08T00:14:40;179;154;
47079;PMS5003;33067;49.296;14.470;2023-02-08T00:17:05;157;145;
47079;PMS5003;33067;49.296;14.470;2023-02-08T00:19:30;169;140;
47079;PMS5003;33067;49.296;14.470;2023-02-08T00:21:55;152;132;
47079;PMS5003;33067;49.296;14.470;2023-02-08T00:24:21;172;143;
47079;PMS5003;33067;49.296;14.470;2023-02-08T00:26:46;156;135;
47079;PMS5003;33067;49.296;14.470;2023-02-08T00:29:12;149;136;
47079;PMS5003;33067;49.296;14.470;2023-02-08T00:31:37;141;125;
47079;PMS5003;33067;49.296;14.470;2023-02-08T00:34:04;146;135;
47079;PMS5003;33067;49.296;14.470;2023-02-08T00:36:29;170;139;
47079;PMS5003;33067;49.296;14.470;2023-02-08T00:38:54;178;149;
47079;PMS5003;33067;49.296;14.470;2023-02-08T00:41:19;134;123;
47079;PMS5003;33067;49.296;14.470;2023-02-08T00:43:45;161;137;
47079;PMS5003;33067;49.296;14.470;2023-02-08T00:46:11;165;141;
47079;PMS5003;33067;49.296;14.470;2023-02-08T00:48:36;154;132;
47079;PMS5003;33067;49.296;14.470;2023-02-08T00:51:02;147;123;
47079;PMS5003;33067;49.296;14.470;2023-02-08T00:53:26;162;144;
47079;PMS5003;33067;49.296;14.470;2023-02-08T00:55:52;161;139;
47079;PMS5003;33067;49.296;14.470;2023-02-08T00:58:17;160;144;
47079;PMS5003;33067;49.296;14.470;2023-02-08T01:00:43;143;134;
47079;PMS5003;33067;49.296;14.470;2023-02-08T01:03:08;160;138;
47079;PMS5003;33067;49.296;14.470;2023-02-08T01:05:35;150;134;
47079;PMS5003;33067;49.296;14.470;2023-02-08T01:07:59;158;139;
47079;PMS5003;33067;49.296;14.470;2023-02-08T01:10:25;166;140;
47079;PMS5003;33067;49.296;14.470;2023-02-08T01:12:50;223;198;
47079;PMS5003;33067;49.296;14.470;2023-02-08T01:15:16;190;173;
47079;PMS5003;33067;49.296;14.470;2023-02-08T01:17:41;149;135;
47079;PMS5003;33067;49.296;14.470;2023-02-08T01:20:06;170;150;
47079;PMS5003;33067;49.296;14.470;2023-02-08T01:22:31;144;127;
47079;PMS5003;33067;49.296;14.470;2023-02-08T01:24:58;148;132;
47079;PMS5003;33067;49.296;14.470;2023-02-08T01:27:23;156;130;
47079;PMS5003;33067;49.296;14.470;2023-02-08T01:29:49;138;120;
47079;PMS5003;33067;49.296;14.470;2023-02-08T01:32:14;156;136;
47079;PMS5003;33067;49.296;14.470;2023-02-08T01:34:40;126;114;
47079;PMS5003;33067;49.296;14.470;2023-02-08T01:37:05;123;106;
47079;PMS5003;33067;49.296;14.470;2023-02-08T01:39:31;130;117;
47079;PMS5003;33067;49.296;14.470;2023-02-08T01:41:56;136;118;
47079;PMS5003;33067;49.296;14.470;2023-02-08T01:46:48;125;111;
47079;PMS5003;33067;49.296;14.470;2023-02-08T01:49:14;132;112;
47079;PMS5003;33067;49.296;14.470;2023-02-08T01:51:39;118;106;
47079;PMS5003;33067;49.296;14.470;2023-02-08T01:54:04;130;109;
47079;PMS5003;33067;49.296;14.470;2023-02-08T01:56:30;113;99;
47079;PMS5003;33067;49.296;14.470;2023-02-08T01:58:54;102;96;
47079;PMS5003;33067;49.296;14.470;2023-02-08T02:01:20;119;98;
47079;PMS5003;33067;49.296;14.470;2023-02-08T02:03:45;106;92;
47079;PMS5003;33067;49.296;14.470;2023-02-08T02:06:12;106;92;
47079;PMS5003;33067;49.296;14.470;2023-02-08T02:08:36;94;86;
47079;PMS5003;33067;49.296;14.470;2023-02-08T02:11:01;94;80;
47079;PMS5003;33067;49.296;14.470;2023-02-08T02:13:27;129;116;
47079;PMS5003;33067;49.296;14.470;2023-02-08T02:15:53;143;123;
47079;PMS5003;33067;49.296;14.470;2023-02-08T02:18:21;117;105;
47079;PMS5003;33067;49.296;14.470;2023-02-08T02:20:49;134;112;
47079;PMS5003;33067;49.296;14.470;2023-02-08T02:23:15;118;101;
47079;PMS5003;33067;49.296;14.470;2023-02-08T02:25:43;126;114;
47079;PMS5003;33067;49.296;14.470;2023-02-08T02:28:05;130;118;
47079;PMS5003;33067;49.296;14.470;2023-02-08T02:30:30;131;110;
47079;PMS5003;33067;49.296;14.470;2023-02-08T02:32:53;123;109;
47079;PMS5003;33067;49.296;14.470;2023-02-08T02:35:17;126;112;
47079;PMS5003;33067;49.296;14.470;2023-02-08T02:37:45;117;98;
47079;PMS5003;33067;49.296;14.470;2023-02-08T02:40:07;125;113;
47079;PMS5003;33067;49.296;14.470;2023-02-08T02:42:33;111;101;
47079;PMS5003;33067;49.296;14.470;2023-02-08T02:44:59;110;102;
47079;PMS5003;33067;49.296;14.470;2023-02-08T02:47:25;111;101;
47079;PMS5003;33067;49.296;14.470;2023-02-08T02:49:48;129;109;
47079;PMS5003;33067;49.296;14.470;2023-02-08T02:52:14;97;88;
47079;PMS5003;33067;49.296;14.470;2023-02-08T02:54:39;112;105;
47079;PMS5003;33067;49.296;14.470;2023-02-08T02:57:05;87;78;
47079;PMS5003;33067;49.296;14.470;2023-02-08T02:59:30;85;78;
47079;PMS5003;33067;49.296;14.470;2023-02-08T03:01:55;88;79;
47079;PMS5003;33067;49.296;14.470;2023-02-08T03:06:50;91;78;
47079;PMS5003;33067;49.296;14.470;2023-02-08T03:09:15;87;73;
47079;PMS5003;33067;49.296;14.470;2023-02-08T03:13:02;77;73;
47079;PMS5003;33067;49.296;14.470;2023-02-08T03:15:27;82;73;
47079;PMS5003;33067;49.296;14.470;2023-02-08T03:17:54;85;78;
47079;PMS5003;33067;49.296;14.470;2023-02-08T03:20:17;84;71;
47079;PMS5003;33067;49.296;14.470;2023-02-08T03:22:42;96;77;
47079;PMS5003;33067;49.296;14.470;2023-02-08T03:25:08;85;72;
47079;PMS5003;33067;49.296;14.470;2023-02-08T03:27:33;89;77;
47079;PMS5003;33067;49.296;14.470;2023-02-08T03:29:59;83;74;
47079;PMS5003;33067;49.296;14.470;2023-02-08T03:32:24;78;74;
47079;PMS5003;33067;49.296;14.470;2023-02-08T03:34:50;80;73;
47079;PMS5003;33067;49.296;14.470;2023-02-08T03:37:15;71;64;
47079;PMS5003;33067;49.296;14.470;2023-02-08T03:39:39;83;75;
47079;PMS5003;33067;49.296;14.470;2023-02-08T03:42:05;79;73;
47079;PMS5003;33067;49.296;14.470;2023-02-08T03:44:31;83;77;
47079;PMS5003;33067;49.296;14.470;2023-02-08T03:46:55;85;78;
47079;PMS5003;33067;49.296;14.470;2023-02-08T03:49:21;95;78;
47079;PMS5003;33067;49.296;14.470;2023-02-08T03:51:46;95;83;
47079;PMS5003;33067;49.296;14.470;2023-02-08T03:54:12;83;77;
47079;PMS5003;33067;49.296;14.470;2023-02-08T03:56:37;87;77;
47079;PMS5003;33067;49.296;14.470;2023-02-08T03:59:03;71;65;
47079;PMS5003;33067;49.296;14.470;2023-02-08T04:01:30;78;73;
47079;PMS5003;33067;49.296;14.470;2023-02-08T04:03:54;77;72;
47079;PMS5003;33067;49.296;14.470;2023-02-08T04:06:20;77;68;
47079;PMS5003;33067;49.296;14.470;2023-02-08T04:08:45;87;76;
47079;PMS5003;33067;49.296;14.470;2023-02-08T04:11:11;172;146;
47079;PMS5003;33067;49.296;14.470;2023-02-08T04:13:36;135;119;
47079;PMS5003;33067;49.296;14.470;2023-02-08T04:16:02;132;113;
47079;PMS5003;33067;49.296;14.470;2023-02-08T04:18:27;125;113;
47079;PMS5003;33067;49.296;14.470;2023-02-08T04:20:53;107;88;
47079;PMS5003;33067;49.296;14.470;2023-02-08T04:23:18;113;96;
47079;PMS5003;33067;49.296;14.470;2023-02-08T04:25:44;107;90;
47079;PMS5003;33067;49.296;14.470;2023-02-08T04:28:10;94;83;
47079;PMS5003;33067;49.296;14.470;2023-02-08T04:30:35;102;86;
47079;PMS5003;33067;49.296;14.470;2023-02-08T04:33:01;107;93;
47079;PMS5003;33067;49.296;14.470;2023-02-08T04:35:26;135;108;
47079;PMS5003;33067;49.296;14.470;2023-02-08T04:37:51;132;110;
47079;PMS5003;33067;49.296;14.470;2023-02-08T04:40:17;128;113;
47079;PMS5003;33067;49.296;14.470;2023-02-08T04:42:41;118;108;
47079;PMS5003;33067;49.296;14.470;2023-02-08T04:45:07;132;106;
47079;PMS5003;33067;49.296;14.470;2023-02-08T04:47:32;107;90;
47079;PMS5003;33067;49.296;14.470;2023-02-08T04:49:58;111;82;
47079;PMS5003;33067;49.296;14.470;2023-02-08T04:52:23;101;80;
47079;PMS5003;33067;49.296;14.470;2023-02-08T04:54:49;90;83;
47079;PMS5003;33067;49.296;14.470;2023-02-08T04:57:14;86;73;
47079;PMS5003;33067;49.296;14.470;2023-02-08T04:59:39;93;78;
47079;PMS5003;33067;49.296;14.470;2023-02-08T05:02:05;98;88;
47079;PMS5003;33067;49.296;14.470;2023-02-08T05:04:30;100;84;
47079;PMS5003;33067;49.296;14.470;2023-02-08T05:06:56;77;69;
47079;PMS5003;33067;49.296;14.470;2023-02-08T05:09:21;94;86;
47079;PMS5003;33067;49.296;14.470;2023-02-08T05:11:47;81;66;
47079;PMS5003;33067;49.296;14.470;2023-02-08T05:14:12;107;83;
47079;PMS5003;33067;49.296;14.470;2023-02-08T05:16:38;90;82;
47079;PMS5003;33067;49.296;14.470;2023-02-08T05:19:04;80;75;
47079;PMS5003;33067;49.296;14.470;2023-02-08T05:21:29;82;73;
47079;PMS5003;33067;49.296;14.470;2023-02-08T05:23:54;101;86;
47079;PMS5003;33067;49.296;14.470;2023-02-08T05:26:20;103;96;
47079;PMS5003;33067;49.296;14.470;2023-02-08T05:28:46;107;98;
47079;PMS5003;33067;49.296;14.470;2023-02-08T05:31:12;110;88;
47079;PMS5003;33067;49.296;14.470;2023-02-08T05:33:36;100;87;
47079;PMS5003;33067;49.296;14.470;2023-02-08T05:36:02;90;80;
47079;PMS5003;33067;49.296;14.470;2023-02-08T05:38:27;102;90;
47079;PMS5003;33067;49.296;14.470;2023-02-08T05:40:52;95;83;
47079;PMS5003;33067;49.296;14.470;2023-02-08T05:43:17;105;90;
47079;PMS5003;33067;49.296;14.470;2023-02-08T05:45:43;92;85;
47079;PMS5003;33067;49.296;14.470;2023-02-08T05:48:08;97;84;
47079;PMS5003;33067;49.296;14.470;2023-02-08T05:50:33;89;81;
47079;PMS5003;33067;49.296;14.470;2023-02-08T05:52:59;93;79;
47079;PMS5003;33067;49.296;14.470;2023-02-08T05:55:24;108;91;
47079;PMS5003;33067;49.296;14.470;2023-02-08T05:57:50;107;90;
47079;PMS5003;33067;49.296;14.470;2023-02-08T06:00:15;115;104;
47079;PMS5003;33067;49.296;14.470;2023-02-08T06:02:41;116;103;
47079;PMS5003;33067;49.296;14.470;2023-02-08T06:05:06;134;120;
47079;PMS5003;33067;49.296;14.470;2023-02-08T06:07:31;136;115;
47079;PMS5003;33067;49.296;14.470;2023-02-08T06:09:57;118;103;
47079;PMS5003;33067;49.296;14.470;2023-02-08T06:12:23;137;105;
47079;PMS5003;33067;49.296;14.470;2023-02-08T06:14:48;125;101;
47079;PMS5003;33067;49.296;14.470;2023-02-08T06:17:14;136;114;
47079;PMS5003;33067;49.296;14.470;2023-02-08T06:19:39;138;121;
47079;PMS5003;33067;49.296;14.470;2023-02-08T06:22:05;143;122;
47079;PMS5003;33067;49.296;14.470;2023-02-08T06:24:31;120;107;
47079;PMS5003;33067;49.296;14.470;2023-02-08T06:26:56;140;115;
47079;PMS5003;33067;49.296;14.470;2023-02-08T06:29:22;120;106;
47079;PMS5003;33067;49.296;14.470;2023-02-08T06:31:47;118;105;
47079;PMS5003;33067;49.296;14.470;2023-02-08T06:34:13;137;106;
47079;PMS5003;33067;49.296;14.470;2023-02-08T06:36:38;105;92;
47079;PMS5003;33067;49.296;14.470;2023-02-08T06:39:03;90;81;
47079;PMS5003;33067;49.296;14.470;2023-02-08T06:41:28;94;89;
47079;PMS5003;33067;49.296;14.470;2023-02-08T06:43:54;110;98;
47079;PMS5003;33067;49.296;14.470;2023-02-08T06:46:19;95;85;
47079;PMS5003;33067;49.296;14.470;2023-02-08T06:48:45;90;72;
47079;PMS5003;33067;49.296;14.470;2023-02-08T06:51:11;90;73;
47079;PMS5003;33067;49.296;14.470;2023-02-08T06:53:36;101;81;
47079;PMS5003;33067;49.296;14.470;2023-02-08T06:56:01;93;82;
47079;PMS5003;33067;49.296;14.470;2023-02-08T06:58:27;83;73;
47079;PMS5003;33067;49.296;14.470;2023-02-08T07:00:53;97;77;
47079;PMS5003;33067;49.296;14.470;2023-02-08T07:03:18;94;79;
47079;PMS5003;33067;49.296;14.470;2023-02-08T07:05:44;90;86;
47079;PMS5003;33067;49.296;14.470;2023-02-08T07:08:09;90;82;
47079;PMS5003;33067;49.296;14.470;2023-02-08T07:10:36;92;84;
47079;PMS5003;33067;49.296;14.470;2023-02-08T07:13:00;87;80;
47079;PMS5003;33067;49.296;14.470;2023-02-08T07:15:25;122;105;
47079;PMS5003;33067;49.296;14.470;2023-02-08T07:17:51;124;118;
47079;PMS5003;33067;49.296;14.470;2023-02-08T07:20:16;135;123;
47079;PMS5003;33067;49.296;14.470;2023-02-08T07:22:41;136;123;
47079;PMS5003;33067;49.296;14.470;2023-02-08T07:25:07;153;139;
47079;PMS5003;33067;49.296;14.470;2023-02-08T07:27:33;162;136;
47079;PMS5003;33067;49.296;14.470;2023-02-08T07:29:58;185;162;
47079;PMS5003;33067;49.296;14.470;2023-02-08T07:32:23;169;141;
47079;PMS5003;33067;49.296;14.470;2023-02-08T07:34:48;172;152;
47079;PMS5003;33067;49.296;14.470;2023-02-08T07:37:14;214;194;
47079;PMS5003;33067;49.296;14.470;2023-02-08T07:39:39;196;158;
47079;PMS5003;33067;49.296;14.470;2023-02-08T07:42:06;166;147;
47079;PMS5003;33067;49.296;14.470;2023-02-08T07:44:30;368;331;
47079;PMS5003;33067;49.296;14.470;2023-02-08T07:46:55;176;160;
47079;PMS5003;33067;49.296;14.470;2023-02-08T07:49:21;168;139;
47079;PMS5003;33067;49.296;14.470;2023-02-08T07:51:46;148;125;
47079;PMS5003;33067;49.296;14.470;2023-02-08T07:54:12;118;105;
47079;PMS5003;33067;49.296;14.470;2023-02-08T07:56:37;145;125;
47079;PMS5003;33067;49.296;14.470;2023-02-08T07:59:02;141;123;
47079;PMS5003;33067;49.296;14.470;2023-02-08T08:01:27;142;125;
47079;PMS5003;33067;49.296;14.470;2023-02-08T08:03:52;112;99;
47079;PMS5003;33067;49.296;14.470;2023-02-08T08:06:18;110;93;
47079;PMS5003;33067;49.296;14.470;2023-02-08T08:08:43;131;116;
47079;PMS5003;33067;49.296;14.470;2023-02-08T08:11:09;118;99;
47079;PMS5003;33067;49.296;14.470;2023-02-08T08:13:34;120;103;
47079;PMS5003;33067;49.296;14.470;2023-02-08T08:16:00;138;130;
47079;PMS5003;33067;49.296;14.470;2023-02-08T08:18:25;130;119;
47079;PMS5003;33067;49.296;14.470;2023-02-08T08:20:51;124;113;
47079;PMS5003;33067;49.296;14.470;2023-02-08T08:23:16;132;117;
47079;PMS5003;33067;49.296;14.470;2023-02-08T08:25:41;143;128;
47079;PMS5003;33067;49.296;14.470;2023-02-08T08:28:07;170;156;
47079;PMS5003;33067;49.296;14.470;2023-02-08T08:30:32;133;117;
47079;PMS5003;33067;49.296;14.470;2023-02-08T08:32:58;118;106;
47079;PMS5003;33067;49.296;14.470;2023-02-08T08:35:23;138;125;
47079;PMS5003;33067;49.296;14.470;2023-02-08T08:37:48;181;164;
47079;PMS5003;33067;49.296;14.470;2023-02-08T08:40:14;139;133;
47079;PMS5003;33067;49.296;14.470;2023-02-08T08:42:40;116;102;
47079;PMS5003;33067;49.296;14.470;2023-02-08T08:45:05;112;104;
47079;PMS5003;33067;49.296;14.470;2023-02-08T08:47:31;99;86;
47079;PMS5003;33067;49.296;14.470;2023-02-08T08:49:56;111;99;
47079;PMS5003;33067;49.296;14.470;2023-02-08T08:52:22;83;73;
47079;PMS5003;33067;49.296;14.470;2023-02-08T08:54:47;92;78;
47079;PMS5003;33067;49.296;14.470;2023-02-08T08:57:13;77;70;
47079;PMS5003;33067;49.296;14.470;2023-02-08T08:59:38;69;66;
47079;PMS5003;33067;49.296;14.470;2023-02-08T09:02:04;86;75;
47079;PMS5003;33067;49.296;14.470;2023-02-08T09:04:30;78;59;
47079;PMS5003;33067;49.296;14.470;2023-02-08T09:06:55;74;63;
47079;PMS5003;33067;49.296;14.470;2023-02-08T09:09:21;70;60;
47079;PMS5003;33067;49.296;14.470;2023-02-08T09:11:47;94;73;
47079;PMS5003;33067;49.296;14.470;2023-02-08T09:14:13;75;65;
47079;PMS5003;33067;49.296;14.470;2023-02-08T09:16:39;77;61;
47079;PMS5003;33067;49.296;14.470;2023-02-08T09:19:04;72;58;
47079;PMS5003;33067;49.296;14.470;2023-02-08T09:21:29;78;58;
47079;PMS5003;33067;49.296;14.470;2023-02-08T09:23:54;69;59;
47079;PMS5003;33067;49.296;14.470;2023-02-08T09:26:20;69;59;
47079;PMS5003;33067;49.296;14.470;2023-02-08T09:28:45;77;63;
47079;PMS5003;33067;49.296;14.470;2023-02-08T09:31:11;64;62;
47079;PMS5003;33067;49.296;14.470;2023-02-08T09:33:35;72;66;
47079;PMS5003;33067;49.296;14.470;2023-02-08T09:36:01;89;73;
47079;PMS5003;33067;49.296;14.470;2023-02-08T09:38:27;83;70;
47079;PMS5003;33067;49.296;14.470;2023-02-08T09:40:55;69;59;
47079;PMS5003;33067;49.296;14.470;2023-02-08T09:43:19;67;60;
47079;PMS5003;33067;49.296;14.470;2023-02-08T09:45:46;84;68;
47079;PMS5003;33067;49.296;14.470;2023-02-08T09:48:13;73;63;
47079;PMS5003;33067;49.296;14.470;2023-02-08T09:50:34;70;60;
47079;PMS5003;33067;49.296;14.470;2023-02-08T09:53:00;71;60;
47079;PMS5003;33067;49.296;14.470;2023-02-08T09:55:26;84;67;
47079;PMS5003;33067;49.296;14.470;2023-02-08T09:57:49;79;69;
47079;PMS5003;33067;49.296;14.470;2023-02-08T10:00:16;75;55;
47079;PMS5003;33067;49.296;14.470;2023-02-08T10:02:41;75;65;
47079;PMS5003;33067;49.296;14.470;2023-02-08T10:05:08;74;60;
47079;PMS5003;33067;49.296;14.470;2023-02-08T10:07:32;75;66;
47079;PMS5003;33067;49.296;14.470;2023-02-08T10:09:57;60;56;
47079;PMS5003;33067;49.296;14.470;2023-02-08T10:12:25;81;66;
47079;PMS5003;33067;49.296;14.470;2023-02-08T10:14:53;69;61;
47079;PMS5003;33067;49.296;14.470;2023-02-08T10:17:20;69;62;
47079;PMS5003;33067;49.296;14.470;2023-02-08T10:19:43;62;53;
47079;PMS5003;33067;49.296;14.470;2023-02-08T10:22:08;66;53;
47079;PMS5003;33067;49.296;14.470;2023-02-08T10:24:35;79;64;
47079;PMS5003;33067;49.296;14.470;2023-02-08T10:26:57;75;64;
47079;PMS5003;33067;49.296;14.470;2023-02-08T10:29:28;64;51;
47079;PMS5003;33067;49.296;14.470;2023-02-08T10:31:51;69;63;
47079;PMS5003;33067;49.296;14.470;2023-02-08T10:34:19;68;57;
47079;PMS5003;33067;49.296;14.470;2023-02-08T10:36:38;64;58;
47079;PMS5003;33067;49.296;14.470;2023-02-08T10:39:08;62;51;
47079;PMS5003;33067;49.296;14.470;2023-02-08T10:41:31;61;51;
47079;PMS5003;33067;49.296;14.470;2023-02-08T10:43:55;66;53;
47079;PMS5003;33067;49.296;14.470;2023-02-08T10:46:21;65;57;
47079;PMS5003;33067;49.296;14.470;2023-02-08T10:48:48;63;54;
47079;PMS5003;33067;49.296;14.470;2023-02-08T10:51:13;68;59;
47079;PMS5003;33067;49.296;14.470;2023-02-08T10:53:37;58;53;
47079;PMS5003;33067;49.296;14.470;2023-02-08T10:56:02;69;58;
47079;PMS5003;33067;49.296;14.470;2023-02-08T10:58:28;65;58;
47079;PMS5003;33067;49.296;14.470;2023-02-08T11:00:53;64;55;
47079;PMS5003;33067;49.296;14.470;2023-02-08T11:03:20;69;62;
47079;PMS5003;33067;49.296;14.470;2023-02-08T11:05:44;70;59;
47079;PMS5003;33067;49.296;14.470;2023-02-08T11:08:10;69;61;
47079;PMS5003;33067;49.296;14.470;2023-02-08T11:10:36;62;57;
47079;PMS5003;33067;49.296;14.470;2023-02-08T11:13:02;57;52;
47079;PMS5003;33067;49.296;14.470;2023-02-08T11:15:28;55;52;
47079;PMS5003;33067;49.296;14.470;2023-02-08T11:17:53;51;49;
47079;PMS5003;33067;49.296;14.470;2023-02-08T11:20:19;76;63;
47079;PMS5003;33067;49.296;14.470;2023-02-08T11:22:44;74;70;
47079;PMS5003;33067;49.296;14.470;2023-02-08T11:25:12;60;51;
47079;PMS5003;33067;49.296;14.470;2023-02-08T11:27:36;73;64;
47079;PMS5003;33067;49.296;14.470;2023-02-08T11:32:25;61;53;
47079;PMS5003;33067;49.296;14.470;2023-02-08T11:34:50;60;52;
47079;PMS5003;33067;49.296;14.470;2023-02-08T11:37:16;68;60;
47079;PMS5003;33067;49.296;14.470;2023-02-08T11:39:41;64;51;
47079;PMS5003;33067;49.296;14.470;2023-02-08T11:42:12;57;50;
47079;PMS5003;33067;49.296;14.470;2023-02-08T11:44:34;70;57;
47079;PMS5003;33067;49.296;14.470;2023-02-08T11:46:59;70;57;
47079;PMS5003;33067;49.296;14.470;2023-02-08T11:49:24;59;54;
47079;PMS5003;33067;49.296;14.470;2023-02-08T11:51:49;65;60;
47079;PMS5003;33067;49.296;14.470;2023-02-08T11:56:39;70;59;
47079;PMS5003;33067;49.296;14.470;2023-02-08T11:59:14;60;48;
47079;PMS5003;33067;49.296;14.470;2023-02-08T12:01:31;63;57;
47079;PMS5003;33067;49.296;14.470;2023-02-08T12:03:57;55;52;
47079;PMS5003;33067;49.296;14.470;2023-02-08T12:06:25;65;54;
47079;PMS5003;33067;49.296;14.470;2023-02-08T12:08:49;69;59;
47079;PMS5003;33067;49.296;14.470;2023-02-08T12:11:14;55;48;
47079;PMS5003;33067;49.296;14.470;2023-02-08T12:13:42;60;54;
47079;PMS5003;33067;49.296;14.470;2023-02-08T12:16:06;54;48;
47079;PMS5003;33067;49.296;14.470;2023-02-08T12:18:37;59;51;
47079;PMS5003;33067;49.296;14.470;2023-02-08T12:20:55;62;53;
47079;PMS5003;33067;49.296;14.470;2023-02-08T12:23:24;67;52;
47079;PMS5003;33067;49.296;14.470;2023-02-08T12:25:47;61;46;
47079;PMS5003;33067;49.296;14.470;2023-02-08T12:28:12;54;46;
47079;PMS5003;33067;49.296;14.470;2023-02-08T12:30:38;54;46;
47079;PMS5003;33067;49.296;14.470;2023-02-08T12:33:05;43;35;
47079;PMS5003;33067;49.296;14.470;2023-02-08T12:37:53;47;38;
47079;PMS5003;33067;49.296;14.470;2023-02-08T12:40:24;36;35;
47079;PMS5003;33067;49.296;14.470;2023-02-08T12:42:46;43;39;
47079;PMS5003;33067;49.296;14.470;2023-02-08T12:45:14;37;35;
47079;PMS5003;33067;49.296;14.470;2023-02-08T12:47:36;28;28;
47079;PMS5003;33067;49.296;14.470;2023-02-08T12:50:01;41;35;
47079;PMS5003;33067;49.296;14.470;2023-02-08T12:52:27;29;29;
47079;PMS5003;33067;49.296;14.470;2023-02-08T12:54:50;34;34;
47079;PMS5003;33067;49.296;14.470;2023-02-08T12:57:15;48;44;
47079;PMS5003;33067;49.296;14.470;2023-02-08T12:59:41;40;36;
47079;PMS5003;33067;49.296;14.470;2023-02-08T13:02:10;35;32;
47079;PMS5003;33067;49.296;14.470;2023-02-08T13:04:33;26;26;
47079;PMS5003;33067;49.296;14.470;2023-02-08T13:06:57;37;35;
47079;PMS5003;33067;49.296;14.470;2023-02-08T13:09:25;24;22;
47079;PMS5003;33067;49.296;14.470;2023-02-08T13:11:49;30;26;
47079;PMS5003;33067;49.296;14.470;2023-02-08T13:14:24;32;26;
47079;PMS5003;33067;49.296;14.470;2023-02-08T13:16:41;31;22;
47079;PMS5003;33067;49.296;14.470;2023-02-08T13:19:20;20;19;
47079;PMS5003;33067;49.296;14.470;2023-02-08T13:21:31;20;19;
47079;PMS5003;33067;49.296;14.470;2023-02-08T13:23:55;23;20;
47079;PMS5003;33067;49.296;14.470;2023-02-08T13:26:21;26;25;
47079;PMS5003;33067;49.296;14.470;2023-02-08T13:28:47;23;22;
47079;PMS5003;33067;49.296;14.470;2023-02-08T13:31:12;33;27;
47079;PMS5003;33067;49.296;14.470;2023-02-08T13:33:38;24;18;
47079;PMS5003;33067;49.296;14.470;2023-02-08T13:36:03;25;21;
47079;PMS5003;33067;49.296;14.470;2023-02-08T13:38:29;40;38;
47079;PMS5003;33067;49.296;14.470;2023-02-08T13:41:02;31;28;
47079;PMS5003;33067;49.296;14.470;2023-02-08T13:43:21;32;28;
47079;PMS5003;33067;49.296;14.470;2023-02-08T13:45:44;28;25;
47079;PMS5003;33067;49.296;14.470;2023-02-08T13:48:10;34;32;
47079;PMS5003;33067;49.296;14.470;2023-02-08T13:50:39;34;31;
47079;PMS5003;33067;49.296;14.470;2023-02-08T13:53:01;37;35;
47079;PMS5003;33067;49.296;14.470;2023-02-08T13:57:53;33;30;
47079;PMS5003;33067;49.296;14.470;2023-02-08T14:00:20;28;26;
47079;PMS5003;33067;49.296;14.470;2023-02-08T14:07:39;22;21;
47079;PMS5003;33067;49.296;14.470;2023-02-08T14:10:03;27;26;
47079;PMS5003;33067;49.296;14.470;2023-02-08T14:12:31;19;18;
47079;PMS5003;33067;49.296;14.470;2023-02-08T14:17:18;21;17;
47079;PMS5003;33067;49.296;14.470;2023-02-08T14:19:43;17;14;
47079;PMS5003;33067;49.296;14.470;2023-02-08T14:22:13;22;19;
47079;PMS5003;33067;49.296;14.470;2023-02-08T14:24:36;23;19;
47079;PMS5003;33067;49.296;14.470;2023-02-08T14:27:05;21;21;
47079;PMS5003;33067;49.296;14.470;2023-02-08T14:29:25;23;23;
47079;PMS5003;33067;49.296;14.470;2023-02-08T14:31:51;22;19;
47079;PMS5003;33067;49.296;14.470;2023-02-08T14:34:21;21;21;
47079;PMS5003;33067;49.296;14.470;2023-02-08T14:36:42;25;23;
47079;PMS5003;33067;49.296;14.470;2023-02-08T14:41:43;22;21;
47079;PMS5003;33067;49.296;14.470;2023-02-08T14:43:59;18;17;
47079;PMS5003;33067;49.296;14.470;2023-02-08T14:48:50;15;15;
47079;PMS5003;33067;49.296;14.470;2023-02-08T14:51:16;25;23;
47079;PMS5003;33067;49.296;14.470;2023-02-08T14:53:42;15;13;
47079;PMS5003;33067;49.296;14.470;2023-02-08T14:58:33;25;22;
47079;PMS5003;33067;49.296;14.470;2023-02-08T15:01:01;17;17;
47079;PMS5003;33067;49.296;14.470;2023-02-08T15:03:24;18;15;
47079;PMS5003;33067;49.296;14.470;2023-02-08T15:06:01;14;13;
47079;PMS5003;33067;49.296;14.470;2023-02-08T15:08:18;10;9;
47079;PMS5003;33067;49.296;14.470;2023-02-08T15:10:41;15;13;
47079;PMS5003;33067;49.296;14.470;2023-02-08T15:13:06;19;19;
47079;PMS5003;33067;49.296;14.470;2023-02-08T15:15:32;27;27;
47079;PMS5003;33067;49.296;14.470;2023-02-08T15:17:57;25;22;
47079;PMS5003;33067;49.296;14.470;2023-02-08T15:20:23;21;19;
47079;PMS5003;33067;49.296;14.470;2023-02-08T15:22:55;19;19;
47079;PMS5003;33067;49.296;14.470;2023-02-08T15:25:20;13;11;
47079;PMS5003;33067;49.296;14.470;2023-02-08T15:27:44;13;13;
47079;PMS5003;33067;49.296;14.470;2023-02-08T15:30:05;10;10;
47079;PMS5003;33067;49.296;14.470;2023-02-08T15:32:31;11;11;
47079;PMS5003;33067;49.296;14.470;2023-02-08T15:34:58;9;9;
47079;PMS5003;33067;49.296;14.470;2023-02-08T15:37:22;14;11;
47079;PMS5003;33067;49.296;14.470;2023-02-08T15:39:48;10;10;
47079;PMS5003;33067;49.296;14.470;2023-02-08T15:42:15;13;12;
47079;PMS5003;33067;49.296;14.470;2023-02-08T15:44:40;11;9;
47079;PMS5003;33067;49.296;14.470;2023-02-08T15:47:04;11;11;
47079;PMS5003;33067;49.296;14.470;2023-02-08T15:49:34;11;11;
47079;PMS5003;33067;49.296;14.470;2023-02-08T15:51:55;21;17;
47079;PMS5003;33067;49.296;14.470;2023-02-08T15:54:21;10;10;
47079;PMS5003;33067;49.296;14.470;2023-02-08T15:56:48;9;9;
47079;PMS5003;33067;49.296;14.470;2023-02-08T15:59:13;10;9;
47079;PMS5003;33067;49.296;14.470;2023-02-08T16:01:38;10;10;
47079;PMS5003;33067;49.296;14.470;2023-02-08T16:04:04;12;12;
47079;PMS5003;33067;49.296;14.470;2023-02-08T16:06:30;13;10;
47079;PMS5003;33067;49.296;14.470;2023-02-08T16:08:56;16;13;